Overview Statistics Trail Chart Weather Telemetry Raw packets
 

This is the latest recevied weather packets stored in our database for station/object KI5NXU. If no packets are shown the sender has not sent any weather packets the latest 10 day(s).

<< 96 97 98 99 100 101 102 >>
Time Temp. Humidity Pressure Rain* Wind** Luminosity Snow
1787671532 30.56° C 56% 1017.3 hPa 0 mm - 398 W/m² -
1787671227 30.56° C 56% 1017.4 hPa 0 mm - 387 W/m² -
1787670927 30° C 59% 1017.6 hPa 0 mm - 317 W/m² -
1787670623 29.44° C 58% 1017.7 hPa 0 mm - 310 W/m² -
1787670322 29.44° C 61% 1017.5 hPa 0 mm - 316 W/m² -
1787670017 28.89° C 65% 1017.5 hPa 0 mm - 296 W/m² -
1787669712 27.78° C 66% 1017.6 hPa 0 mm - 178 W/m² -
1787669406 27.22° C 71% 1017.7 hPa 0 mm - 201 W/m² -
1787669102 26.11° C 78% 1017.5 hPa 0 mm - 172 W/m² -
1787668798 25.56° C 81% 1017.4 hPa 0 mm - 97 W/m² -
1787668494 26.11° C 74% 1016.9 hPa 0 mm - 70 W/m² -
1787668189 25.56° C 73% 1017.1 hPa 0 mm - 62 W/m² -
1787667884 24.44° C 76% 1016.9 hPa 0 mm - 55 W/m² -
1787667579 23.33° C 87% 1017 hPa 0 mm - 56 W/m² -
1787667276 23.33° C 87% 1016.9 hPa 0 mm - 53 W/m² -
1787666975 22.78° C 88% 1017 hPa 0 mm - 50 W/m² -
1787666671 23.33° C 87% 1016.8 hPa 1.27 mm - 50 W/m² -
1787666370 23.33° C 86% 1016.7 hPa 3.05 mm - 50 W/m² -
1787666067 25° C 74% 1016.7 hPa 7.87 mm - 46 W/m² -
1787665761 26.67° C 68% 1016.6 hPa 6.1 mm - 45 W/m² -
1787665456 28.33° C 57% 1016.9 hPa 0 mm - 43 W/m² -
1787665156 28.33° C 56% 1016.9 hPa 0 mm - 37 W/m² -
1787664854 28.33° C 57% 1016.3 hPa 0 mm - 30 W/m² -
1787664554 27.78° C 57% 1016.4 hPa 0 mm - 27 W/m² -
1787664249 27.78° C 57% 1016.1 hPa 0 mm - 24 W/m² -

* Rain latest hour (hover to see other rain measurements)
** Current wind speed in m/s (hover to see current wind gust speed)